首页
METAR-TAF:

METAR-TAF

机场 :

小萨尔加多国际机场

阿雷格里港, 南里奥格兰德州, 巴西

纬度: 30-00S, 经度: 051-11W, 海拔: 3米

当前天气观测

该预报发布于59分钟前的01:00 UTC
风速8节,风向东转东南
温度 18°C
湿度 83%
气压 1015 hPa
能见度10公里或以上
1500米以下无云,无积雨云

METAR: SBPA 220100Z 11008KT CAVOK 18/15 Q1015

时间: 23:59 (01:59 UTC)

预报

该预报发布于3小时和44分钟前的22:15 UTC
预报有效从22日的 00点(UTC)到 22日的 24点(UTC)
风速10节,风向东转东南
能见度10公里或以上
1500米以下无云,无积雨云
成为
从 22日的 02点(UTC)到 22日的 04点(UTC)
风速5节,风向
成为
从 22日的 12点(UTC)到 22日的 14点(UTC)
风速7节,风向北转西北
能见度10公里或以上
少量云层高于3000英尺
成为
从 22日的 15点(UTC)到 22日的 17点(UTC)
风速5节,风向西转西北
散云层高于3500英尺
成为
从 22日的 20点(UTC)到 22日的 22点(UTC)
风速7节,风向南转南东

TAF: SBPA 212215Z 2200/2224 11010KT CAVOK TN15/2208Z TX31/2217Z BECMG 2202/2204 09005KT BECMG 2212/2214 34007KT 9999 FEW030 BECMG 2215/2217 29005KT SCT035 BECMG 2220/2222 16007KT RMK PCX

超过4000个机场的气象观测和天气预报(METAR&TAF报告)。

可查询的气象台以黄色和红色小点在地图上表示。

将鼠标移到小点上方,可查看气象台名称。

然后点击查看天气观测和预报。

如需切换地图:点击带黑十字的绿色按钮放大地图;点击带横线的绿色按钮缩小地图;或者点击绿色箭头查看邻近地区的地图。


METAR-TAF: